createdAt,value
2023-02-11T00:00:15.722Z,53.20
2023-02-11T00:02:42.421Z,54.00
2023-02-11T00:05:09.220Z,54.40
2023-02-11T00:07:35.944Z,52.90
2023-02-11T00:10:03.008Z,53.80
2023-02-11T00:12:29.667Z,53.20
2023-02-11T00:14:56.359Z,50.60
2023-02-11T00:17:23.139Z,51.70
2023-02-11T00:19:52.862Z,52.50
2023-02-11T00:22:19.741Z,54.30
2023-02-11T00:24:46.508Z,52.30
2023-02-11T00:27:13.299Z,54.40
2023-02-11T00:29:40.133Z,52.80
2023-02-11T00:32:08.830Z,51.70
2023-02-11T00:34:36.447Z,52.50
2023-02-11T00:37:03.532Z,53.60
2023-02-11T00:39:30.467Z,51.10
2023-02-11T00:41:57.670Z,51.50
2023-02-11T00:44:24.333Z,51.10
2023-02-11T00:46:51.068Z,52.60
2023-02-11T00:49:18.104Z,51.00
2023-02-11T00:51:44.795Z,51.00
2023-02-11T00:54:11.489Z,53.00
2023-02-11T00:56:38.238Z,54.70
2023-02-11T00:59:04.965Z,54.20
2023-02-11T01:01:31.779Z,52.20
2023-02-11T01:03:58.467Z,51.80
2023-02-11T01:06:25.205Z,52.10
2023-02-11T01:08:51.873Z,54.00
2023-02-11T01:11:21.221Z,53.10
2023-02-11T01:13:49.477Z,52.30
2023-02-11T01:16:16.714Z,51.60
2023-02-11T01:18:44.321Z,51.70
2023-02-11T01:21:11.824Z,51.20
2023-02-11T01:23:38.523Z,54.30
2023-02-11T01:26:05.431Z,52.20
2023-02-11T01:28:32.713Z,52.50
2023-02-11T01:31:03.373Z,52.00
2023-02-11T01:33:30.145Z,53.40
2023-02-11T01:36:01.301Z,52.30
2023-02-11T01:38:27.951Z,50.50
2023-02-11T01:40:57.640Z,52.60
2023-02-11T01:43:25.612Z,53.50
2023-02-11T01:46:02.910Z,55.00
2023-02-11T01:48:38.407Z,53.10
2023-02-11T01:51:09.512Z,51.80
2023-02-11T01:53:55.754Z,54.30
2023-02-11T01:56:41.487Z,54.90
2023-02-11T01:59:13.562Z,52.70
2023-02-11T02:01:40.996Z,56.50
2023-02-11T02:04:09.881Z,56.10
2023-02-11T02:06:44.652Z,57.00
2023-02-11T02:09:33.245Z,56.80
2023-02-11T02:11:59.988Z,57.00
2023-02-11T02:14:26.663Z,58.40
2023-02-11T02:16:53.354Z,57.80
2023-02-11T02:19:45.616Z,55.30
2023-02-11T02:22:53.689Z,56.50
2023-02-11T02:25:27.086Z,56.30
2023-02-11T02:28:12.664Z,58.00
2023-02-11T02:31:00.354Z,58.00
2023-02-11T02:33:33.368Z,57.20
2023-02-11T02:36:22.794Z,57.70
2023-02-11T02:39:04.938Z,58.40
2023-02-11T02:41:33.809Z,58.00
2023-02-11T02:44:00.651Z,59.50
2023-02-11T02:46:30.650Z,57.70
2023-02-11T02:48:58.123Z,60.80
2023-02-11T02:51:49.576Z,57.80
2023-02-11T02:54:25.003Z,60.10
2023-02-11T02:56:55.935Z,60.60
2023-02-11T02:59:32.014Z,60.50
2023-02-11T03:02:25.638Z,59.30
2023-02-11T03:05:01.403Z,58.50
2023-02-11T03:07:31.107Z,59.40
2023-02-11T03:10:02.677Z,60.10
2023-02-11T03:12:31.834Z,59.50
2023-02-11T03:14:59.322Z,60.70
2023-02-11T03:17:26.700Z,63.10
2023-02-11T03:19:54.036Z,61.80
2023-02-11T03:22:25.837Z,61.60
2023-02-11T03:24:52.472Z,60.90
2023-02-11T03:27:40.802Z,59.30
2023-02-11T03:30:13.529Z,59.00
2023-02-11T03:32:51.665Z,59.80
2023-02-11T03:35:23.522Z,60.40
2023-02-11T03:37:55.021Z,60.70
2023-02-11T03:40:32.079Z,59.50
2023-02-11T03:43:03.373Z,60.80
2023-02-11T03:45:31.253Z,60.30
2023-02-11T03:48:04.565Z,61.10
2023-02-11T03:50:32.600Z,60.60
2023-02-11T03:53:01.604Z,59.70
2023-02-11T03:55:29.021Z,60.20
2023-02-11T03:57:56.303Z,61.20
2023-02-11T04:00:37.337Z,61.00
2023-02-11T04:03:04.598Z,60.10
2023-02-11T04:05:31.674Z,60.40
2023-02-11T04:07:58.382Z,61.80
2023-02-11T04:10:25.436Z,60.30
2023-02-11T04:12:52.147Z,61.60
2023-02-11T04:15:19.033Z,62.50
2023-02-11T04:17:45.698Z,63.20
2023-02-11T04:20:12.655Z,62.80
2023-02-11T04:22:39.305Z,63.80
2023-02-11T04:25:06.658Z,63.20
2023-02-11T04:27:33.425Z,65.60
2023-02-11T04:30:00.111Z,66.80
2023-02-11T04:32:26.894Z,65.60
2023-02-11T04:34:54.862Z,65.00
2023-02-11T04:37:21.513Z,67.90
2023-02-11T04:39:48.303Z,68.80
2023-02-11T04:42:14.956Z,68.40
2023-02-11T04:44:41.594Z,68.10
2023-02-11T04:47:08.653Z,69.40
2023-02-11T04:49:35.398Z,69.20
2023-02-11T04:52:02.053Z,68.80
2023-02-11T04:54:28.693Z,72.80
2023-02-11T04:56:55.392Z,74.20
2023-02-11T04:59:22.039Z,70.80
2023-02-11T05:01:49.556Z,71.60
2023-02-11T05:04:17.157Z,68.80
2023-02-11T05:06:43.949Z,70.00
2023-02-11T05:09:12.555Z,68.90
2023-02-11T05:11:41.989Z,70.00
2023-02-11T05:14:08.745Z,70.90
2023-02-11T05:16:35.877Z,72.50
2023-02-11T05:19:02.574Z,70.90
2023-02-11T05:21:29.529Z,68.20
2023-02-11T05:23:57.351Z,68.90
2023-02-11T05:26:23.994Z,69.60
2023-02-11T05:28:50.650Z,70.00
2023-02-11T05:31:17.386Z,68.50
2023-02-11T05:33:44.171Z,68.80
2023-02-11T05:36:12.414Z,69.10
2023-02-11T05:38:39.486Z,66.90
2023-02-11T05:41:06.845Z,68.40
2023-02-11T05:43:35.302Z,68.00
2023-02-11T05:46:02.515Z,67.00
2023-02-11T05:48:29.289Z,68.40
2023-02-11T05:50:55.942Z,68.80
2023-02-11T05:53:22.824Z,67.80
2023-02-11T05:55:49.966Z,68.50
2023-02-11T05:58:16.802Z,69.20
2023-02-11T06:00:43.693Z,69.60
2023-02-11T06:03:10.445Z,71.20
2023-02-11T06:05:37.930Z,72.50
2023-02-11T06:08:04.805Z,71.00
2023-02-11T06:10:31.465Z,69.60
2023-02-11T06:12:58.132Z,73.00
2023-02-11T06:15:24.976Z,72.90
2023-02-11T06:17:51.883Z,73.50
2023-02-11T06:20:18.610Z,71.00
2023-02-11T06:22:45.402Z,71.90
2023-02-11T06:25:12.499Z,71.40
2023-02-11T06:27:39.695Z,72.80
2023-02-11T06:30:07.813Z,70.40
2023-02-11T06:32:49.819Z,71.80
2023-02-11T06:35:16.674Z,70.60
2023-02-11T06:37:43.502Z,71.40
2023-02-11T06:40:11.248Z,70.80
2023-02-11T06:42:39.221Z,69.70
2023-02-11T06:45:09.053Z,71.60
2023-02-11T06:47:35.729Z,69.30
2023-02-11T06:50:02.406Z,72.00
2023-02-11T06:52:29.072Z,72.40
2023-02-11T06:54:55.717Z,70.40
2023-02-11T06:57:22.388Z,71.50
2023-02-11T06:59:49.152Z,70.10
2023-02-11T07:02:16.086Z,71.40
2023-02-11T07:04:43.398Z,70.40
2023-02-11T07:07:10.069Z,72.90
2023-02-11T07:09:36.774Z,72.00
2023-02-11T07:12:03.571Z,70.70
2023-02-11T07:14:30.238Z,72.30
2023-02-11T07:16:56.980Z,73.20
2023-02-11T07:19:23.641Z,72.30
2023-02-11T07:21:50.309Z,73.20
2023-02-11T07:24:17.205Z,72.30
2023-02-11T07:26:44.639Z,74.00
2023-02-11T07:29:11.331Z,71.60
2023-02-11T07:31:38.112Z,72.80
2023-02-11T07:34:04.815Z,74.20
2023-02-11T07:36:32.330Z,73.00
2023-02-11T07:39:00.174Z,77.10
2023-02-11T07:41:27.085Z,77.40
2023-02-11T07:43:54.301Z,75.80
2023-02-11T07:46:26.173Z,76.50
2023-02-11T07:48:53.317Z,78.50
2023-02-11T07:51:22.833Z,77.90
2023-02-11T07:53:49.747Z,76.70
2023-02-11T07:56:17.251Z,78.00
2023-02-11T07:58:43.965Z,75.60
2023-02-11T08:01:13.270Z,76.70
2023-02-11T08:03:41.275Z,77.00
2023-02-11T08:06:10.030Z,75.90
2023-02-11T08:08:36.971Z,76.90
2023-02-11T08:11:12.092Z,77.80
2023-02-11T08:13:39.057Z,77.00
2023-02-11T08:16:06.746Z,78.10
2023-02-11T08:18:34.132Z,77.20
2023-02-11T08:21:08.324Z,78.70
2023-02-11T08:23:39.318Z,79.20
2023-02-11T08:26:14.085Z,81.10
2023-02-11T08:28:42.573Z,82.20
2023-02-11T08:31:21.074Z,83.50
2023-02-11T08:33:48.037Z,82.60
2023-02-11T08:36:23.995Z,81.80
2023-02-11T08:38:50.911Z,82.50
2023-02-11T08:41:18.179Z,84.10
2023-02-11T08:43:45.692Z,83.10
2023-02-11T08:46:15.711Z,84.40
2023-02-11T08:48:42.857Z,86.00
2023-02-11T08:51:12.740Z,87.80
2023-02-11T08:53:39.399Z,89.70
2023-02-11T08:56:06.536Z,90.30
2023-02-11T08:58:33.584Z,92.30
2023-02-11T09:01:00.311Z,91.70
2023-02-11T09:03:27.174Z,92.20
2023-02-11T09:05:54.769Z,93.80
2023-02-11T09:08:21.603Z,94.60
2023-02-11T09:10:48.844Z,96.20
2023-02-11T09:13:16.905Z,96.20
2023-02-11T09:15:46.795Z,96.90
2023-02-11T09:18:14.081Z,95.50
2023-02-11T09:20:40.739Z,96.40
2023-02-11T09:23:07.454Z,96.90
2023-02-11T09:25:34.229Z,97.40
2023-02-11T09:28:01.060Z,96.30
2023-02-11T09:30:27.765Z,97.30
2023-02-11T09:32:54.427Z,96.40
2023-02-11T09:35:21.089Z,96.10
2023-02-11T09:37:47.738Z,97.40
2023-02-11T09:40:15.249Z,97.90
2023-02-11T09:43:00.954Z,98.60
2023-02-11T09:45:30.451Z,98.80
2023-02-11T09:47:59.912Z,99.00
2023-02-11T09:50:34.121Z,99.50
2023-02-11T09:53:07.217Z,99.70
2023-02-11T09:55:41.924Z,99.90
2023-02-11T09:58:13.538Z,99.90
2023-02-11T10:00:42.083Z,99.90
2023-02-11T10:03:35.146Z,99.90
2023-02-11T10:06:36.278Z,99.90
2023-02-11T10:09:24.958Z,99.90
2023-02-11T10:12:04.189Z,99.90
2023-02-11T10:15:13.805Z,99.90
2023-02-11T10:17:56.284Z,99.90
2023-02-11T10:20:37.341Z,99.90
2023-02-11T10:23:24.775Z,99.90
2023-02-11T10:25:56.674Z,99.90
2023-02-11T10:28:32.908Z,99.90
2023-02-11T10:30:59.723Z,99.90
2023-02-11T10:33:44.987Z,99.90
2023-02-11T10:36:13.090Z,99.90
2023-02-11T10:38:39.934Z,99.90
2023-02-11T10:41:09.675Z,99.90
2023-02-11T10:43:36.561Z,99.90
2023-02-11T10:46:05.103Z,99.90
2023-02-11T10:48:51.429Z,99.90
2023-02-11T10:51:22.244Z,99.90
2023-02-11T10:54:05.374Z,99.90
2023-02-11T10:56:35.956Z,99.90
2023-02-11T10:59:08.015Z,99.90
2023-02-11T11:01:50.175Z,99.90
2023-02-11T11:04:38.615Z,99.90
2023-02-11T11:07:23.031Z,99.90
2023-02-11T11:10:02.700Z,99.90
2023-02-11T11:12:35.119Z,99.90
2023-02-11T11:15:10.650Z,99.90
2023-02-11T11:17:38.449Z,99.90
2023-02-11T11:20:20.445Z,99.90
2023-02-11T11:22:49.084Z,99.90
2023-02-11T11:25:27.297Z,99.90
2023-02-11T11:27:57.362Z,99.90
2023-02-11T11:30:27.111Z,99.90
2023-02-11T11:32:53.985Z,99.90
2023-02-11T11:35:26.413Z,99.90
2023-02-11T11:37:58.394Z,99.90
2023-02-11T11:40:29.281Z,99.90
2023-02-11T11:43:13.211Z,99.90
2023-02-11T11:45:40.826Z,99.90
2023-02-11T11:48:33.207Z,99.90
2023-02-11T11:51:02.823Z,99.90
2023-02-11T11:53:52.044Z,99.90
2023-02-11T11:56:28.697Z,99.90
2023-02-11T11:58:55.456Z,99.90
2023-02-11T12:02:13.523Z,99.90
2023-02-11T12:04:54.767Z,99.90
2023-02-11T12:07:40.399Z,99.90
2023-02-11T12:10:27.512Z,99.90
2023-02-11T12:13:10.548Z,99.90
2023-02-11T12:16:04.604Z,99.90
2023-02-11T12:18:55.356Z,99.90
2023-02-11T12:21:43.447Z,99.90
2023-02-11T12:24:43.797Z,99.90
2023-02-11T12:27:46.711Z,99.90
2023-02-11T12:30:19.254Z,99.90
2023-02-11T12:32:58.489Z,99.90
2023-02-11T12:35:34.077Z,99.90
2023-02-11T12:38:18.687Z,99.90
2023-02-11T12:40:57.310Z,99.90
2023-02-11T12:43:26.504Z,99.90
2023-02-11T12:46:02.624Z,99.90
2023-02-11T12:48:35.891Z,99.90
2023-02-11T12:51:11.916Z,99.90
2023-02-11T12:54:06.914Z,99.90
2023-02-11T12:56:42.051Z,99.90
2023-02-11T12:59:25.271Z,99.90
2023-02-11T13:01:52.740Z,99.90
2023-02-11T13:04:29.294Z,99.90
2023-02-11T13:06:59.566Z,99.90
2023-02-11T13:09:36.876Z,99.90
2023-02-11T13:12:24.944Z,99.90
2023-02-11T13:14:54.260Z,99.90
2023-02-11T13:17:44.604Z,99.90
2023-02-11T13:20:33.209Z,99.90
2023-02-11T13:23:12.640Z,99.90
2023-02-11T13:25:59.611Z,99.90
2023-02-11T13:28:41.370Z,99.90
2023-02-11T13:31:09.386Z,99.90
2023-02-11T13:33:43.228Z,99.90
2023-02-11T13:36:11.233Z,99.90
2023-02-11T13:38:38.649Z,99.90
2023-02-11T13:41:24.728Z,99.90
2023-02-11T13:44:08.876Z,99.90
2023-02-11T13:46:54.126Z,99.90
2023-02-11T13:49:23.713Z,99.90
2023-02-11T13:51:50.988Z,99.90
2023-02-11T13:54:27.661Z,99.90
2023-02-11T13:57:16.236Z,99.90
2023-02-11T13:59:42.854Z,99.90
2023-02-11T14:03:07.268Z,99.90
2023-02-11T14:05:52.341Z,97.90
2023-02-11T14:08:39.992Z,97.90
2023-02-11T14:11:29.815Z,99.80
2023-02-11T14:14:16.513Z,97.80
2023-02-11T14:16:58.723Z,98.20
2023-02-11T14:19:38.695Z,99.80
2023-02-11T14:22:09.682Z,97.30
2023-02-11T14:24:36.280Z,91.20
2023-02-11T14:27:10.094Z,93.00
2023-02-11T14:29:45.525Z,93.00
2023-02-11T14:32:56.649Z,91.70
2023-02-11T14:35:37.133Z,87.10
2023-02-11T14:38:22.716Z,89.90
2023-02-11T14:41:07.558Z,90.30
2023-02-11T14:43:45.207Z,85.50
2023-02-11T14:46:11.915Z,83.10
2023-02-11T14:48:45.197Z,84.30
2023-02-11T14:51:18.554Z,79.10
2023-02-11T14:53:50.584Z,76.80
2023-02-11T14:56:31.062Z,75.80
2023-02-11T14:58:58.591Z,75.40
2023-02-11T15:01:40.552Z,70.80
2023-02-11T15:04:23.637Z,70.40
2023-02-11T15:06:50.586Z,69.80
2023-02-11T15:09:19.776Z,69.90
2023-02-11T15:11:48.209Z,71.50
2023-02-11T15:14:22.676Z,70.70
2023-02-11T15:16:50.717Z,68.90
2023-02-11T15:19:29.134Z,70.10
2023-02-11T15:21:56.879Z,68.50
2023-02-11T15:24:31.651Z,74.10
2023-02-11T15:27:16.061Z,71.20
2023-02-11T15:29:50.616Z,71.10
2023-02-11T15:32:22.971Z,63.80
2023-02-11T15:34:51.366Z,66.60
2023-02-11T15:37:26.777Z,66.00
2023-02-11T15:39:54.432Z,72.70
2023-02-11T15:42:26.700Z,67.40
2023-02-11T15:45:16.132Z,65.50
2023-02-11T15:47:54.708Z,66.70
2023-02-11T15:50:22.537Z,63.00
2023-02-11T15:52:49.926Z,72.20
2023-02-11T15:55:17.851Z,70.40
2023-02-11T15:58:00.123Z,71.80
2023-02-11T16:00:37.373Z,72.00
2023-02-11T16:03:04.536Z,73.70
2023-02-11T16:05:34.063Z,73.50
2023-02-11T16:08:12.316Z,87.70
2023-02-11T16:10:38.959Z,75.60
2023-02-11T16:13:08.584Z,80.50
2023-02-11T16:15:38.107Z,83.90
2023-02-11T16:18:36.803Z,81.00
2023-02-11T16:21:06.324Z,76.40
2023-02-11T16:23:36.029Z,88.30
2023-02-11T16:26:20.953Z,87.50
2023-02-11T16:28:47.814Z,90.30
2023-02-11T16:31:14.601Z,92.30
2023-02-11T16:33:41.269Z,90.30
2023-02-11T16:36:17.405Z,90.80
2023-02-11T16:38:44.097Z,86.90
2023-02-11T16:41:12.714Z,81.70
2023-02-11T16:43:40.466Z,84.70
2023-02-11T16:46:08.739Z,86.10
2023-02-11T16:48:35.429Z,82.20
2023-02-11T16:51:02.155Z,87.50
2023-02-11T16:53:28.795Z,83.40
2023-02-11T16:55:55.625Z,86.50
2023-02-11T16:58:22.329Z,85.10
2023-02-11T17:00:49.253Z,79.70
2023-02-11T17:03:23.568Z,79.30
2023-02-11T17:05:55.621Z,83.00
2023-02-11T17:08:22.538Z,86.00
2023-02-11T17:10:49.742Z,91.30
2023-02-11T17:13:16.635Z,90.20
2023-02-11T17:15:43.281Z,89.70
2023-02-11T17:18:13.458Z,88.80
2023-02-11T17:20:40.638Z,85.90
2023-02-11T17:23:07.437Z,89.00
2023-02-11T17:25:34.212Z,89.80
2023-02-11T17:28:00.872Z,90.90
2023-02-11T17:30:27.596Z,90.40
2023-02-11T17:32:54.261Z,88.40
2023-02-11T17:35:21.013Z,88.00
2023-02-11T17:37:47.758Z,90.10
2023-02-11T17:40:14.890Z,88.30
2023-02-11T17:42:41.642Z,89.60
2023-02-11T17:45:09.104Z,86.20
2023-02-11T17:47:36.039Z,88.50
2023-02-11T17:50:03.174Z,88.20
2023-02-11T17:52:30.006Z,88.30
2023-02-11T17:54:57.913Z,86.80
2023-02-11T17:57:24.571Z,86.40
2023-02-11T17:59:51.545Z,85.70
2023-02-11T18:02:18.852Z,85.80
2023-02-11T18:04:45.568Z,84.60
2023-02-11T18:07:12.407Z,85.70
2023-02-11T18:09:40.922Z,85.20
2023-02-11T18:12:08.753Z,83.50
2023-02-11T18:14:35.416Z,83.90
2023-02-11T18:17:02.165Z,82.50
2023-02-11T18:19:30.605Z,83.20
2023-02-11T18:22:00.835Z,82.80
2023-02-11T18:24:27.768Z,82.80
2023-02-11T18:26:54.530Z,83.00
2023-02-11T18:29:21.255Z,82.50
2023-02-11T18:31:48.026Z,81.70
2023-02-11T18:34:15.835Z,82.80
2023-02-11T18:36:42.609Z,80.20
2023-02-11T18:39:09.360Z,81.80
2023-02-11T18:41:36.107Z,78.60
2023-02-11T18:44:04.518Z,80.80
2023-02-11T18:46:31.409Z,81.90
2023-02-11T18:48:58.149Z,81.80
2023-02-11T18:51:25.552Z,81.70
2023-02-11T18:53:52.924Z,81.50
2023-02-11T18:56:21.837Z,81.80
2023-02-11T18:58:49.144Z,83.40
2023-02-11T19:01:22.797Z,86.30
2023-02-11T19:03:50.001Z,83.50
2023-02-11T19:06:19.783Z,81.50
2023-02-11T19:08:47.311Z,83.10
2023-02-11T19:11:16.626Z,83.70
2023-02-11T19:13:43.263Z,84.90
2023-02-11T19:16:16.705Z,85.60
2023-02-11T19:18:43.486Z,81.60
2023-02-11T19:21:11.473Z,81.00
2023-02-11T19:23:38.295Z,79.70
2023-02-11T19:26:06.340Z,79.00
2023-02-11T19:28:34.017Z,81.60
2023-02-11T19:31:10.027Z,80.30
2023-02-11T19:33:37.002Z,79.90
2023-02-11T19:36:05.706Z,82.60
2023-02-11T19:38:32.426Z,83.20
2023-02-11T19:40:59.293Z,84.00
2023-02-11T19:43:25.962Z,82.90
2023-02-11T19:45:56.179Z,81.20
2023-02-11T19:48:23.898Z,80.00
2023-02-11T19:50:50.664Z,80.40
2023-02-11T19:53:17.404Z,82.60
2023-02-11T19:55:44.090Z,81.30
2023-02-11T19:58:10.750Z,80.80
2023-02-11T20:00:37.502Z,80.80
2023-02-11T20:03:04.188Z,87.30
2023-02-11T20:05:31.424Z,85.50
2023-02-11T20:07:58.110Z,80.50
2023-02-11T20:10:25.344Z,80.00
2023-02-11T20:12:52.077Z,81.50
2023-02-11T20:15:18.777Z,79.70
2023-02-11T20:17:45.509Z,80.90
2023-02-11T20:20:12.884Z,79.70
2023-02-11T20:22:39.565Z,79.50
2023-02-11T20:25:06.586Z,78.10
2023-02-11T20:27:33.490Z,75.10
2023-02-11T20:30:00.163Z,77.00
2023-02-11T20:32:26.822Z,80.40
2023-02-11T20:34:53.506Z,77.10
2023-02-11T20:37:20.520Z,78.90
2023-02-11T20:39:47.330Z,79.70
2023-02-11T20:42:15.167Z,78.50
2023-02-11T20:44:41.897Z,77.20
2023-02-11T20:47:08.679Z,76.30
2023-02-11T20:49:35.345Z,78.60
2023-02-11T20:52:01.998Z,79.10
2023-02-11T20:54:28.663Z,80.80
2023-02-11T20:56:56.855Z,79.10
2023-02-11T20:59:24.029Z,77.00
2023-02-11T21:01:56.044Z,78.80
2023-02-11T21:04:25.536Z,80.80
2023-02-11T21:06:55.861Z,79.10
2023-02-11T21:09:25.346Z,82.30
2023-02-11T21:11:53.058Z,80.90
2023-02-11T21:14:20.690Z,80.80
2023-02-11T21:16:48.354Z,81.60
2023-02-11T21:19:16.068Z,79.10
2023-02-11T21:21:43.260Z,79.90
2023-02-11T21:24:10.732Z,79.80
2023-02-11T21:26:37.738Z,79.50
2023-02-11T21:29:05.833Z,80.50
2023-02-11T21:31:33.732Z,79.30
2023-02-11T21:34:00.706Z,79.10
2023-02-11T21:36:28.697Z,79.00
2023-02-11T21:38:55.337Z,79.60
2023-02-11T21:41:22.655Z,78.90
2023-02-11T21:43:49.898Z,82.00
2023-02-11T21:46:18.005Z,80.00
2023-02-11T21:48:44.811Z,79.60
2023-02-11T21:51:14.206Z,79.60
2023-02-11T21:53:40.911Z,80.00
2023-02-11T21:56:13.188Z,82.20
2023-02-11T21:58:40.045Z,81.20
2023-02-11T22:01:30.902Z,80.90
2023-02-11T22:03:57.985Z,79.40
2023-02-11T22:06:27.307Z,81.50
2023-02-11T22:08:54.733Z,81.90
2023-02-11T22:11:21.434Z,82.30
2023-02-11T22:13:48.182Z,80.80
2023-02-11T22:16:16.659Z,82.00
2023-02-11T22:18:46.970Z,82.80
2023-02-11T22:21:16.346Z,81.40
2023-02-11T22:23:43.400Z,82.20
2023-02-11T22:26:16.845Z,82.00
2023-02-11T22:28:47.361Z,81.90
2023-02-11T22:31:22.576Z,80.90
2023-02-11T22:33:52.223Z,81.40
2023-02-11T22:36:27.371Z,81.60
2023-02-11T22:38:56.870Z,81.30
2023-02-11T22:41:25.891Z,82.00
2023-02-11T22:43:55.903Z,81.90
2023-02-11T22:46:23.629Z,83.20
2023-02-11T22:48:50.627Z,82.30
2023-02-11T22:51:20.616Z,82.40
2023-02-11T22:53:58.609Z,82.10
2023-02-11T22:56:26.007Z,82.50
2023-02-11T22:58:56.136Z,83.20
2023-02-11T23:01:22.817Z,82.90
2023-02-11T23:03:49.533Z,82.20
2023-02-11T23:06:16.332Z,81.90
2023-02-11T23:08:43.345Z,83.00
2023-02-11T23:11:16.409Z,82.00
2023-02-11T23:13:44.510Z,83.30
2023-02-11T23:16:14.411Z,83.10
2023-02-11T23:18:42.758Z,82.70
2023-02-11T23:21:12.803Z,83.50
2023-02-11T23:23:39.992Z,82.20
2023-02-11T23:26:13.229Z,82.50
2023-02-11T23:28:40.565Z,82.20
2023-02-11T23:31:28.465Z,82.40
2023-02-11T23:33:55.322Z,82.50
2023-02-11T23:36:22.591Z,82.30
2023-02-11T23:38:49.517Z,82.20
2023-02-11T23:41:16.464Z,81.70
2023-02-11T23:43:43.742Z,81.50
2023-02-11T23:46:12.070Z,81.90
2023-02-11T23:48:40.387Z,82.60
2023-02-11T23:51:09.564Z,83.40
2023-02-11T23:53:37.399Z,82.60
2023-02-11T23:56:13.250Z,82.30
2023-02-11T23:58:39.957Z,81.20
